Blacoveschenka, Kazakhstan
Current Conditions -  °F | °C
As of 7:30 AM on Thursday 23 Oct 2014 (Local Time) from UACP Reporting Station
Overcast Overcast  
Wind Chill: 27°   Ceiling: 1000
Heat Index: 34°   Visibility: 5mi
Dew Point: 34°   Wind: 9mph
Humidity: 100%   Direction: 150°SSE
Pressure: 29.65"   Gusts: NA
Location:  54.37°N, 66.97°E
Report Text: UACP 230130Z 15004MPS 8000 OVC010 01/01 Q1004 NOSIG RMKQFE741/0988
Loading
Personal Weather Stations






























Interactive Weather Map
Tropical Storm Tracking
New forecast layout! Learn more

10-Day Weather Forecast

Advertisements
Track Severe Weather on mobile